Glenhayes, West Virginia
Current Conditions -  °F | °C
As of 5:15 PM on Monday 20 Oct 2014 (Local Time) from KSJS Reporting Station
Overcast Overcast  
Wind Chill: 59°   Ceiling: 11000
Heat Index: 59°   Visibility: 10mi
Dew Point: 49°   Wind: 3mph
Humidity: 70%   Direction: 230°SW
Pressure: 29.95"   Gusts: NA
Location:  38.01°N, 82.52°W
Report Text: KSJS 202115Z AUTO 23003KT 10SM OVC110 15/10 A2995 RMK AO2 T01490095
Loading
Personal Weather Stations






























Interactive Weather Map
Tropical Storm Tracking
New forecast layout! Learn more

10-Day Weather Forecast

Advertisements
Track Severe Weather on mobile